sensor_id;sensor_type;location;lat;lon;timestamp;P1;durP1;ratioP1;P2;durP2;ratioP2
76115;SDS011;64847;45.778;12.802;2024-03-23T00:54:02;6.50;;;5.90;;
76115;SDS011;64847;45.778;12.802;2024-03-23T00:56:28;7.53;;;6.20;;
76115;SDS011;64847;45.778;12.802;2024-03-23T00:58:54;7.30;;;6.70;;
76115;SDS011;64847;45.778;12.802;2024-03-23T01:01:19;6.43;;;5.93;;
76115;SDS011;64847;45.778;12.802;2024-03-23T01:03:44;6.60;;;6.10;;
76115;SDS011;64847;45.778;12.802;2024-03-23T01:06:10;7.30;;;6.70;;
76115;SDS011;64847;45.778;12.802;2024-03-23T01:08:35;6.70;;;6.20;;
76115;SDS011;64847;45.778;12.802;2024-03-23T01:11:01;7.13;;;6.53;;
76115;SDS011;64847;45.778;12.802;2024-03-23T01:13:27;6.73;;;6.23;;
76115;SDS011;64847;45.778;12.802;2024-03-23T01:15:53;5.90;;;5.50;;
76115;SDS011;64847;45.778;12.802;2024-03-23T01:18:19;6.87;;;6.37;;
76115;SDS011;64847;45.778;12.802;2024-03-23T01:20:45;6.93;;;6.33;;
76115;SDS011;64847;45.778;12.802;2024-03-23T01:23:10;7.10;;;6.50;;
76115;SDS011;64847;45.778;12.802;2024-03-23T01:25:36;6.37;;;5.87;;
76115;SDS011;64847;45.778;12.802;2024-03-23T01:28:01;6.37;;;5.80;;
76115;SDS011;64847;45.778;12.802;2024-03-23T01:30:27;8.17;;;7.40;;
76115;SDS011;64847;45.778;12.802;2024-03-23T01:32:52;6.60;;;6.10;;
76115;SDS011;64847;45.778;12.802;2024-03-23T01:35:18;6.63;;;6.13;;
76115;SDS011;64847;45.778;12.802;2024-03-23T01:37:43;7.00;;;6.40;;
76115;SDS011;64847;45.778;12.802;2024-03-23T01:40:08;6.87;;;6.27;;
76115;SDS011;64847;45.778;12.802;2024-03-23T01:42:34;6.67;;;6.17;;
76115;SDS011;64847;45.778;12.802;2024-03-23T01:44:59;7.00;;;6.37;;
76115;SDS011;64847;45.778;12.802;2024-03-23T01:47:26;7.20;;;6.50;;
76115;SDS011;64847;45.778;12.802;2024-03-23T01:49:51;6.97;;;6.37;;
76115;SDS011;64847;45.778;12.802;2024-03-23T01:52:17;7.40;;;6.80;;
76115;SDS011;64847;45.778;12.802;2024-03-23T01:54:42;7.83;;;7.13;;
76115;SDS011;64847;45.778;12.802;2024-03-23T01:57:08;7.83;;;7.03;;
76115;SDS011;64847;45.778;12.802;2024-03-23T01:59:34;7.30;;;6.70;;
76115;SDS011;64847;45.778;12.802;2024-03-23T02:01:59;7.50;;;6.80;;
76115;SDS011;64847;45.778;12.802;2024-03-23T02:04:24;7.57;;;6.97;;
76115;SDS011;64847;45.778;12.802;2024-03-23T02:06:50;7.27;;;6.67;;
76115;SDS011;64847;45.778;12.802;2024-03-23T02:09:15;7.67;;;6.97;;
76115;SDS011;64847;45.778;12.802;2024-03-23T02:11:41;7.57;;;6.97;;
76115;SDS011;64847;45.778;12.802;2024-03-23T02:14:06;8.57;;;7.73;;
76115;SDS011;64847;45.778;12.802;2024-03-23T02:16:32;8.63;;;7.90;;
76115;SDS011;64847;45.778;12.802;2024-03-23T02:18:58;7.47;;;6.87;;
76115;SDS011;64847;45.778;12.802;2024-03-23T02:21:23;8.40;;;7.70;;
76115;SDS011;64847;45.778;12.802;2024-03-23T02:23:49;7.97;;;7.27;;
76115;SDS011;64847;45.778;12.802;2024-03-23T02:26:14;8.67;;;7.97;;
76115;SDS011;64847;45.778;12.802;2024-03-23T02:28:40;8.80;;;8.00;;
76115;SDS011;64847;45.778;12.802;2024-03-23T02:31:05;9.00;;;8.23;;
76115;SDS011;64847;45.778;12.802;2024-03-23T02:33:31;8.30;;;7.50;;
76115;SDS011;64847;45.778;12.802;2024-03-23T02:35:57;8.60;;;7.90;;
76115;SDS011;64847;45.778;12.802;2024-03-23T02:38:22;9.20;;;8.40;;
76115;SDS011;64847;45.778;12.802;2024-03-23T02:40:48;9.97;;;8.97;;
76115;SDS011;64847;45.778;12.802;2024-03-23T02:43:13;9.70;;;8.87;;
76115;SDS011;64847;45.778;12.802;2024-03-23T02:45:38;11.77;;;10.57;;
76115;SDS011;64847;45.778;12.802;2024-03-23T02:48:04;11.00;;;9.93;;
76115;SDS011;64847;45.778;12.802;2024-03-23T02:50:29;10.87;;;9.83;;
76115;SDS011;64847;45.778;12.802;2024-03-23T02:52:55;10.50;;;9.50;;
76115;SDS011;64847;45.778;12.802;2024-03-23T02:55:20;11.70;;;10.60;;
76115;SDS011;64847;45.778;12.802;2024-03-23T02:57:46;11.67;;;10.47;;
76115;SDS011;64847;45.778;12.802;2024-03-23T03:00:11;12.90;;;11.70;;
76115;SDS011;64847;45.778;12.802;2024-03-23T03:02:37;11.90;;;10.80;;
76115;SDS011;64847;45.778;12.802;2024-03-23T03:05:03;12.40;;;11.20;;
76115;SDS011;64847;45.778;12.802;2024-03-23T03:07:30;13.00;;;11.70;;
76115;SDS011;64847;45.778;12.802;2024-03-23T03:09:56;12.30;;;11.10;;
76115;SDS011;64847;45.778;12.802;2024-03-23T03:12:21;12.77;;;11.47;;
76115;SDS011;64847;45.778;12.802;2024-03-23T03:14:46;12.57;;;11.37;;
76115;SDS011;64847;45.778;12.802;2024-03-23T03:17:13;14.37;;;12.87;;
76115;SDS011;64847;45.778;12.802;2024-03-23T03:19:38;12.80;;;11.50;;
76115;SDS011;64847;45.778;12.802;2024-03-23T03:22:04;12.67;;;11.43;;
76115;SDS011;64847;45.778;12.802;2024-03-23T03:24:29;12.43;;;11.13;;
76115;SDS011;64847;45.778;12.802;2024-03-23T03:26:55;11.73;;;10.60;;
76115;SDS011;64847;45.778;12.802;2024-03-23T03:29:20;12.93;;;11.63;;
76115;SDS011;64847;45.778;12.802;2024-03-23T03:31:47;13.33;;;12.03;;
76115;SDS011;64847;45.778;12.802;2024-03-23T03:34:15;12.67;;;11.37;;
76115;SDS011;64847;45.778;12.802;2024-03-23T03:36:40;13.23;;;11.93;;
76115;SDS011;64847;45.778;12.802;2024-03-23T03:39:05;13.93;;;12.50;;
76115;SDS011;64847;45.778;12.802;2024-03-23T03:41:31;13.50;;;12.20;;
76115;SDS011;64847;45.778;12.802;2024-03-23T03:43:57;14.70;;;13.07;;
76115;SDS011;64847;45.778;12.802;2024-03-23T03:46:26;13.87;;;12.47;;
76115;SDS011;64847;45.778;12.802;2024-03-23T03:48:52;15.00;;;13.50;;
76115;SDS011;64847;45.778;12.802;2024-03-23T03:51:18;15.77;;;14.07;;
76115;SDS011;64847;45.778;12.802;2024-03-23T03:53:44;15.77;;;14.17;;
76115;SDS011;64847;45.778;12.802;2024-03-23T03:56:09;16.57;;;14.87;;
76115;SDS011;64847;45.778;12.802;2024-03-23T03:58:34;16.57;;;14.80;;
76115;SDS011;64847;45.778;12.802;2024-03-23T04:01:00;16.17;;;14.53;;
76115;SDS011;64847;45.778;12.802;2024-03-23T04:03:25;16.30;;;14.60;;
76115;SDS011;64847;45.778;12.802;2024-03-23T04:05:54;16.27;;;14.37;;
76115;SDS011;64847;45.778;12.802;2024-03-23T04:08:19;15.47;;;13.87;;
76115;SDS011;64847;45.778;12.802;2024-03-23T04:10:45;16.27;;;14.57;;
76115;SDS011;64847;45.778;12.802;2024-03-23T04:13:11;17.13;;;15.43;;
76115;SDS011;64847;45.778;12.802;2024-03-23T04:15:36;16.87;;;15.10;;
76115;SDS011;64847;45.778;12.802;2024-03-23T04:18:02;18.27;;;15.43;;
76115;SDS011;64847;45.778;12.802;2024-03-23T04:20:27;17.77;;;15.50;;
76115;SDS011;64847;45.778;12.802;2024-03-23T04:22:52;16.37;;;14.67;;
76115;SDS011;64847;45.778;12.802;2024-03-23T04:25:18;16.70;;;15.00;;
76115;SDS011;64847;45.778;12.802;2024-03-23T04:27:44;16.33;;;14.63;;
76115;SDS011;64847;45.778;12.802;2024-03-23T04:30:10;17.37;;;14.60;;
76115;SDS011;64847;45.778;12.802;2024-03-23T04:32:39;16.47;;;14.67;;
76115;SDS011;64847;45.778;12.802;2024-03-23T04:35:05;16.67;;;14.70;;
76115;SDS011;64847;45.778;12.802;2024-03-23T04:37:31;15.90;;;13.80;;
76115;SDS011;64847;45.778;12.802;2024-03-23T04:39:57;19.03;;;15.27;;
76115;SDS011;64847;45.778;12.802;2024-03-23T04:42:23;16.73;;;14.77;;
76115;SDS011;64847;45.778;12.802;2024-03-23T04:44:48;17.93;;;15.20;;
76115;SDS011;64847;45.778;12.802;2024-03-23T04:47:14;16.57;;;14.73;;
76115;SDS011;64847;45.778;12.802;2024-03-23T04:49:39;16.93;;;14.43;;
76115;SDS011;64847;45.778;12.802;2024-03-23T04:52:05;17.67;;;15.27;;
76115;SDS011;64847;45.778;12.802;2024-03-23T04:54:31;16.97;;;15.20;;
76115;SDS011;64847;45.778;12.802;2024-03-23T04:56:59;17.30;;;14.70;;
76115;SDS011;64847;45.778;12.802;2024-03-23T04:59:25;18.30;;;15.27;;
76115;SDS011;64847;45.778;12.802;2024-03-23T05:01:50;20.00;;;14.20;;
76115;SDS011;64847;45.778;12.802;2024-03-23T05:04:16;17.53;;;14.97;;
76115;SDS011;64847;45.778;12.802;2024-03-23T05:06:41;17.63;;;14.37;;
76115;SDS011;64847;45.778;12.802;2024-03-23T05:09:06;18.50;;;14.47;;
76115;SDS011;64847;45.778;12.802;2024-03-23T05:11:33;14.60;;;13.07;;
76115;SDS011;64847;45.778;12.802;2024-03-23T05:13:59;15.87;;;14.13;;
76115;SDS011;64847;45.778;12.802;2024-03-23T05:16:25;14.73;;;13.23;;
76115;SDS011;64847;45.778;12.802;2024-03-23T05:18:51;17.30;;;13.37;;
76115;SDS011;64847;45.778;12.802;2024-03-23T05:21:16;14.87;;;13.10;;
76115;SDS011;64847;45.778;12.802;2024-03-23T05:23:42;13.83;;;12.40;;
76115;SDS011;64847;45.778;12.802;2024-03-23T05:26:08;13.70;;;12.20;;
76115;SDS011;64847;45.778;12.802;2024-03-23T05:28:34;12.43;;;11.30;;
76115;SDS011;64847;45.778;12.802;2024-03-23T05:30:59;13.13;;;11.83;;
76115;SDS011;64847;45.778;12.802;2024-03-23T05:33:25;13.13;;;11.83;;
76115;SDS011;64847;45.778;12.802;2024-03-23T05:35:57;12.93;;;11.63;;
76115;SDS011;64847;45.778;12.802;2024-03-23T05:38:22;13.07;;;11.77;;
76115;SDS011;64847;45.778;12.802;2024-03-23T05:40:58;12.47;;;11.17;;
76115;SDS011;64847;45.778;12.802;2024-03-23T05:43:24;12.13;;;11.00;;
76115;SDS011;64847;45.778;12.802;2024-03-23T05:45:53;11.33;;;10.23;;
76115;SDS011;64847;45.778;12.802;2024-03-23T05:48:19;11.10;;;10.00;;
76115;SDS011;64847;45.778;12.802;2024-03-23T05:50:45;10.83;;;9.80;;
76115;SDS011;64847;45.778;12.802;2024-03-23T05:53:11;11.30;;;10.20;;
76115;SDS011;64847;45.778;12.802;2024-03-23T05:55:38;11.13;;;10.07;;
76115;SDS011;64847;45.778;12.802;2024-03-23T05:58:03;10.27;;;9.33;;
76115;SDS011;64847;45.778;12.802;2024-03-23T06:00:28;10.00;;;9.00;;
76115;SDS011;64847;45.778;12.802;2024-03-23T06:02:54;10.90;;;9.90;;
76115;SDS011;64847;45.778;12.802;2024-03-23T06:05:19;10.60;;;9.63;;
76115;SDS011;64847;45.778;12.802;2024-03-23T06:07:45;10.83;;;9.83;;
76115;SDS011;64847;45.778;12.802;2024-03-23T06:10:10;10.83;;;9.83;;
76115;SDS011;64847;45.778;12.802;2024-03-23T06:12:35;10.57;;;9.57;;
76115;SDS011;64847;45.778;12.802;2024-03-23T06:15:01;10.10;;;9.20;;
76115;SDS011;64847;45.778;12.802;2024-03-23T06:17:26;10.13;;;9.13;;
76115;SDS011;64847;45.778;12.802;2024-03-23T06:19:52;11.10;;;8.53;;
76115;SDS011;64847;45.778;12.802;2024-03-23T06:22:17;8.80;;;8.00;;
76115;SDS011;64847;45.778;12.802;2024-03-23T06:24:43;9.73;;;8.83;;
76115;SDS011;64847;45.778;12.802;2024-03-23T06:27:09;9.77;;;8.50;;
76115;SDS011;64847;45.778;12.802;2024-03-23T06:29:34;9.00;;;8.20;;
76115;SDS011;64847;45.778;12.802;2024-03-23T06:32:01;9.27;;;8.37;;
76115;SDS011;64847;45.778;12.802;2024-03-23T06:34:26;8.47;;;7.70;;
76115;SDS011;64847;45.778;12.802;2024-03-23T06:36:52;8.40;;;7.60;;
76115;SDS011;64847;45.778;12.802;2024-03-23T06:39:17;8.53;;;7.77;;
76115;SDS011;64847;45.778;12.802;2024-03-23T06:41:43;7.90;;;7.30;;
76115;SDS011;64847;45.778;12.802;2024-03-23T06:44:10;8.50;;;7.80;;
76115;SDS011;64847;45.778;12.802;2024-03-23T06:46:36;8.50;;;7.70;;
76115;SDS011;64847;45.778;12.802;2024-03-23T06:49:01;8.00;;;7.40;;
76115;SDS011;64847;45.778;12.802;2024-03-23T06:51:26;7.60;;;7.00;;
76115;SDS011;64847;45.778;12.802;2024-03-23T06:53:52;6.93;;;6.40;;
76115;SDS011;64847;45.778;12.802;2024-03-23T06:56:17;7.10;;;6.40;;
76115;SDS011;64847;45.778;12.802;2024-03-23T06:58:42;7.23;;;6.60;;
76115;SDS011;64847;45.778;12.802;2024-03-23T07:01:08;6.80;;;6.20;;
76115;SDS011;64847;45.778;12.802;2024-03-23T07:03:33;6.57;;;6.00;;
76115;SDS011;64847;45.778;12.802;2024-03-23T07:05:58;6.27;;;5.77;;
76115;SDS011;64847;45.778;12.802;2024-03-23T07:08:25;6.40;;;5.90;;
76115;SDS011;64847;45.778;12.802;2024-03-23T07:10:51;6.22;;;5.72;;
76115;SDS011;64847;45.778;12.802;2024-03-23T07:13:17;5.90;;;5.50;;
76115;SDS011;64847;45.778;12.802;2024-03-23T07:15:43;5.68;;;5.25;;
76115;SDS011;64847;45.778;12.802;2024-03-23T07:18:08;5.93;;;5.43;;
76115;SDS011;64847;45.778;12.802;2024-03-23T07:20:34;5.53;;;5.13;;
76115;SDS011;64847;45.778;12.802;2024-03-23T07:23:00;5.57;;;5.07;;
76115;SDS011;64847;45.778;12.802;2024-03-23T07:27:57;5.53;;;5.10;;
76115;SDS011;64847;45.778;12.802;2024-03-23T07:30:22;4.90;;;4.50;;
76115;SDS011;64847;45.778;12.802;2024-03-23T07:32:47;5.30;;;4.90;;
76115;SDS011;64847;45.778;12.802;2024-03-23T07:35:13;5.15;;;4.85;;
76115;SDS011;64847;45.778;12.802;2024-03-23T07:37:39;5.05;;;4.68;;
76115;SDS011;64847;45.778;12.802;2024-03-23T07:40:04;4.90;;;4.60;;
76115;SDS011;64847;45.778;12.802;2024-03-23T07:42:30;5.45;;;4.93;;
76115;SDS011;64847;45.778;12.802;2024-03-23T07:44:56;5.25;;;4.95;;
76115;SDS011;64847;45.778;12.802;2024-03-23T07:47:22;5.60;;;5.20;;
76115;SDS011;64847;45.778;12.802;2024-03-23T07:49:47;4.68;;;4.38;;
76115;SDS011;64847;45.778;12.802;2024-03-23T07:52:13;5.47;;;5.07;;
76115;SDS011;64847;45.778;12.802;2024-03-23T07:54:38;4.65;;;4.35;;
76115;SDS011;64847;45.778;12.802;2024-03-23T07:57:04;5.03;;;4.63;;
76115;SDS011;64847;45.778;12.802;2024-03-23T07:59:31;4.97;;;4.57;;
76115;SDS011;64847;45.778;12.802;2024-03-23T08:01:58;5.03;;;4.68;;
76115;SDS011;64847;45.778;12.802;2024-03-23T08:04:24;5.47;;;5.07;;
76115;SDS011;64847;45.778;12.802;2024-03-23T08:06:50;4.90;;;4.50;;
76115;SDS011;64847;45.778;12.802;2024-03-23T08:09:15;4.50;;;4.20;;
76115;SDS011;64847;45.778;12.802;2024-03-23T08:11:41;4.97;;;4.47;;
76115;SDS011;64847;45.778;12.802;2024-03-23T08:14:09;4.55;;;4.25;;
76115;SDS011;64847;45.778;12.802;2024-03-23T08:16:35;4.30;;;4.00;;
76115;SDS011;64847;45.778;12.802;2024-03-23T08:19:00;4.40;;;4.10;;
76115;SDS011;64847;45.778;12.802;2024-03-23T08:21:28;4.53;;;4.22;;
76115;SDS011;64847;45.778;12.802;2024-03-23T08:23:53;4.00;;;3.78;;
76115;SDS011;64847;45.778;12.802;2024-03-23T08:26:19;4.70;;;4.35;;
76115;SDS011;64847;45.778;12.802;2024-03-23T08:28:46;5.75;;;5.35;;
76115;SDS011;64847;45.778;12.802;2024-03-23T08:31:20;6.35;;;5.93;;
76115;SDS011;64847;45.778;12.802;2024-03-23T08:33:46;5.82;;;5.43;;
76115;SDS011;64847;45.778;12.802;2024-03-23T08:36:12;5.13;;;4.72;;
76115;SDS011;64847;45.778;12.802;2024-03-23T08:38:39;4.88;;;4.47;;
76115;SDS011;64847;45.778;12.802;2024-03-23T08:41:05;3.65;;;3.45;;
76115;SDS011;64847;45.778;12.802;2024-03-23T08:43:38;4.53;;;4.25;;
76115;SDS011;64847;45.778;12.802;2024-03-23T08:48:40;3.88;;;3.67;;
76115;SDS011;64847;45.778;12.802;2024-03-23T08:51:12;3.50;;;3.30;;
76115;SDS011;64847;45.778;12.802;2024-03-23T08:53:38;4.07;;;3.78;;
76115;SDS011;64847;45.778;12.802;2024-03-23T08:56:13;3.85;;;3.65;;
76115;SDS011;64847;45.778;12.802;2024-03-23T08:58:39;3.72;;;3.50;;
76115;SDS011;64847;45.778;12.802;2024-03-23T09:01:06;3.42;;;3.17;;
76115;SDS011;64847;45.778;12.802;2024-03-23T09:03:32;5.70;;;5.30;;
76115;SDS011;64847;45.778;12.802;2024-03-23T09:05:59;4.53;;;4.32;;
76115;SDS011;64847;45.778;12.802;2024-03-23T09:08:25;4.10;;;3.88;;
76115;SDS011;64847;45.778;12.802;2024-03-23T09:10:51;4.68;;;4.35;;
76115;SDS011;64847;45.778;12.802;2024-03-23T09:13:18;5.18;;;4.88;;
76115;SDS011;64847;45.778;12.802;2024-03-23T09:15:49;3.63;;;3.42;;
76115;SDS011;64847;45.778;12.802;2024-03-23T09:18:15;4.63;;;4.32;;
76115;SDS011;64847;45.778;12.802;2024-03-23T09:20:41;4.30;;;4.00;;
76115;SDS011;64847;45.778;12.802;2024-03-23T09:23:06;3.22;;;3.08;;
76115;SDS011;64847;45.778;12.802;2024-03-23T09:25:31;3.22;;;3.03;;
76115;SDS011;64847;45.778;12.802;2024-03-23T09:27:57;3.33;;;3.13;;
76115;SDS011;64847;45.778;12.802;2024-03-23T09:30:23;4.25;;;3.95;;
76115;SDS011;64847;45.778;12.802;2024-03-23T09:32:48;4.53;;;4.22;;
76115;SDS011;64847;45.778;12.802;2024-03-23T09:35:14;3.90;;;3.65;;
76115;SDS011;64847;45.778;12.802;2024-03-23T09:37:39;4.43;;;4.20;;
76115;SDS011;64847;45.778;12.802;2024-03-23T09:40:05;3.83;;;3.63;;
76115;SDS011;64847;45.778;12.802;2024-03-23T09:42:40;2.97;;;2.83;;
76115;SDS011;64847;45.778;12.802;2024-03-23T09:45:16;3.78;;;3.58;;
76115;SDS011;64847;45.778;12.802;2024-03-23T09:47:43;3.67;;;3.47;;
76115;SDS011;64847;45.778;12.802;2024-03-23T09:50:09;4.20;;;3.90;;
76115;SDS011;64847;45.778;12.802;2024-03-23T09:52:54;3.55;;;3.35;;
76115;SDS011;64847;45.778;12.802;2024-03-23T09:55:19;4.22;;;3.88;;
76115;SDS011;64847;45.778;12.802;2024-03-23T09:57:45;3.33;;;3.15;;
76115;SDS011;64847;45.778;12.802;2024-03-23T10:00:10;2.75;;;2.58;;
76115;SDS011;64847;45.778;12.802;2024-03-23T10:02:37;3.97;;;3.67;;
76115;SDS011;64847;45.778;12.802;2024-03-23T10:05:03;3.53;;;3.35;;
76115;SDS011;64847;45.778;12.802;2024-03-23T10:07:29;3.25;;;3.05;;
76115;SDS011;64847;45.778;12.802;2024-03-23T10:09:54;3.20;;;3.03;;
76115;SDS011;64847;45.778;12.802;2024-03-23T10:12:20;3.40;;;3.20;;
76115;SDS011;64847;45.778;12.802;2024-03-23T10:14:46;3.60;;;3.40;;
76115;SDS011;64847;45.778;12.802;2024-03-23T10:19:40;5.22;;;4.93;;
76115;SDS011;64847;45.778;12.802;2024-03-23T10:22:07;5.82;;;5.43;;
76115;SDS011;64847;45.778;12.802;2024-03-23T10:24:34;3.88;;;3.60;;
76115;SDS011;64847;45.778;12.802;2024-03-23T10:26:59;3.33;;;3.13;;
76115;SDS011;64847;45.778;12.802;2024-03-23T10:29:25;3.70;;;3.50;;
76115;SDS011;64847;45.778;12.802;2024-03-23T10:31:53;3.17;;;2.97;;
76115;SDS011;64847;45.778;12.802;2024-03-23T10:34:25;3.40;;;3.20;;
76115;SDS011;64847;45.778;12.802;2024-03-23T10:36:52;3.22;;;3.03;;
76115;SDS011;64847;45.778;12.802;2024-03-23T10:39:18;3.20;;;3.00;;
76115;SDS011;64847;45.778;12.802;2024-03-23T10:41:47;2.92;;;2.78;;
76115;SDS011;64847;45.778;12.802;2024-03-23T10:44:16;2.28;;;2.17;;
76115;SDS011;64847;45.778;12.802;2024-03-23T10:46:42;2.47;;;2.38;;
76115;SDS011;64847;45.778;12.802;2024-03-23T10:49:07;2.28;;;2.17;;
76115;SDS011;64847;45.778;12.802;2024-03-23T10:51:33;3.15;;;3.00;;
76115;SDS011;64847;45.778;12.802;2024-03-23T10:53:58;3.55;;;3.33;;
76115;SDS011;64847;45.778;12.802;2024-03-23T10:56:25;3.00;;;2.90;;
76115;SDS011;64847;45.778;12.802;2024-03-23T10:58:51;2.53;;;2.42;;
76115;SDS011;64847;45.778;12.802;2024-03-23T11:01:17;3.08;;;2.97;;
76115;SDS011;64847;45.778;12.802;2024-03-23T11:03:46;3.30;;;3.10;;
76115;SDS011;64847;45.778;12.802;2024-03-23T11:06:33;3.17;;;2.97;;
76115;SDS011;64847;45.778;12.802;2024-03-23T11:09:03;2.80;;;2.60;;
76115;SDS011;64847;45.778;12.802;2024-03-23T11:11:29;2.85;;;2.75;;
76115;SDS011;64847;45.778;12.802;2024-03-23T11:13:57;3.08;;;2.78;;
76115;SDS011;64847;45.778;12.802;2024-03-23T11:16:28;2.97;;;2.78;;
76115;SDS011;64847;45.778;12.802;2024-03-23T11:22:01;2.83;;;2.63;;
76115;SDS011;64847;45.778;12.802;2024-03-23T11:24:27;2.25;;;2.15;;
76115;SDS011;64847;45.778;12.802;2024-03-23T11:26:52;1.90;;;1.80;;
76115;SDS011;64847;45.778;12.802;2024-03-23T11:29:18;1.70;;;1.70;;
76115;SDS011;64847;45.778;12.802;2024-03-23T11:31:52;2.03;;;1.92;;
76115;SDS011;64847;45.778;12.802;2024-03-23T11:34:21;2.10;;;2.00;;
76115;SDS011;64847;45.778;12.802;2024-03-23T11:36:47;2.50;;;2.40;;
76115;SDS011;64847;45.778;12.802;2024-03-23T11:39:20;2.50;;;2.30;;
76115;SDS011;64847;45.778;12.802;2024-03-23T11:41:53;2.83;;;2.63;;
76115;SDS011;64847;45.778;12.802;2024-03-23T11:44:20;2.30;;;2.20;;
76115;SDS011;64847;45.778;12.802;2024-03-23T11:46:47;2.58;;;2.45;;
76115;SDS011;64847;45.778;12.802;2024-03-23T11:49:25;2.22;;;2.13;;
76115;SDS011;64847;45.778;12.802;2024-03-23T11:51:53;3.08;;;2.88;;
76115;SDS011;64847;45.778;12.802;2024-03-23T11:54:20;2.63;;;2.53;;
76115;SDS011;64847;45.778;12.802;2024-03-23T11:57:07;2.15;;;2.05;;
76115;SDS011;64847;45.778;12.802;2024-03-23T11:59:34;2.92;;;2.72;;
76115;SDS011;64847;45.778;12.802;2024-03-23T12:02:05;2.20;;;2.10;;
76115;SDS011;64847;45.778;12.802;2024-03-23T12:04:31;2.60;;;2.50;;
76115;SDS011;64847;45.778;12.802;2024-03-23T12:09:38;2.28;;;2.17;;
76115;SDS011;64847;45.778;12.802;2024-03-23T12:12:11;2.50;;;2.30;;
76115;SDS011;64847;45.778;12.802;2024-03-23T12:14:40;3.25;;;3.05;;
76115;SDS011;64847;45.778;12.802;2024-03-23T12:17:10;2.95;;;2.78;;
76115;SDS011;64847;45.778;12.802;2024-03-23T12:19:39;2.90;;;2.80;;
76115;SDS011;64847;45.778;12.802;2024-03-23T12:22:05;2.95;;;2.80;;
76115;SDS011;64847;45.778;12.802;2024-03-23T12:24:31;2.67;;;2.58;;
76115;SDS011;64847;45.778;12.802;2024-03-23T12:26:59;3.25;;;3.05;;
76115;SDS011;64847;45.778;12.802;2024-03-23T12:29:26;2.72;;;2.63;;
76115;SDS011;64847;45.778;12.802;2024-03-23T12:31:53;3.28;;;3.08;;
76115;SDS011;64847;45.778;12.802;2024-03-23T12:34:18;4.55;;;4.25;;
76115;SDS011;64847;45.778;12.802;2024-03-23T12:36:43;4.25;;;3.95;;
76115;SDS011;64847;45.778;12.802;2024-03-23T12:39:09;4.40;;;4.10;;
76115;SDS011;64847;45.778;12.802;2024-03-23T12:41:34;4.72;;;4.30;;
76115;SDS011;64847;45.778;12.802;2024-03-23T12:43:59;4.43;;;4.13;;
76115;SDS011;64847;45.778;12.802;2024-03-23T12:46:25;3.55;;;3.35;;
76115;SDS011;64847;45.778;12.802;2024-03-23T12:48:50;3.85;;;3.55;;
76115;SDS011;64847;45.778;12.802;2024-03-23T12:51:16;4.53;;;4.15;;
76115;SDS011;64847;45.778;12.802;2024-03-23T12:53:41;4.13;;;3.83;;
76115;SDS011;64847;45.778;12.802;2024-03-23T12:56:07;4.20;;;3.90;;
76115;SDS011;64847;45.778;12.802;2024-03-23T12:58:32;3.95;;;3.65;;
76115;SDS011;64847;45.778;12.802;2024-03-23T13:01:00;4.38;;;4.07;;
76115;SDS011;64847;45.778;12.802;2024-03-23T13:03:26;4.20;;;3.90;;
76115;SDS011;64847;45.778;12.802;2024-03-23T13:05:51;4.43;;;4.13;;
76115;SDS011;64847;45.778;12.802;2024-03-23T13:08:17;4.65;;;4.25;;
76115;SDS011;64847;45.778;12.802;2024-03-23T13:10:42;4.38;;;4.07;;
76115;SDS011;64847;45.778;12.802;2024-03-23T13:13:08;5.40;;;5.00;;
76115;SDS011;64847;45.778;12.802;2024-03-23T13:15:33;4.68;;;4.38;;
76115;SDS011;64847;45.778;12.802;2024-03-23T13:17:58;6.15;;;5.72;;
76115;SDS011;64847;45.778;12.802;2024-03-23T13:20:24;6.38;;;5.60;;
76115;SDS011;64847;45.778;12.802;2024-03-23T13:22:49;6.40;;;5.97;;
76115;SDS011;64847;45.778;12.802;2024-03-23T13:25:17;5.93;;;5.43;;
76115;SDS011;64847;45.778;12.802;2024-03-23T13:27:43;5.75;;;5.35;;
76115;SDS011;64847;45.778;12.802;2024-03-23T13:30:09;5.32;;;4.93;;
76115;SDS011;64847;45.778;12.802;2024-03-23T13:32:35;5.05;;;4.60;;
76115;SDS011;64847;45.778;12.802;2024-03-23T13:35:00;5.05;;;4.65;;
76115;SDS011;64847;45.778;12.802;2024-03-23T13:37:26;5.25;;;4.80;;
76115;SDS011;64847;45.778;12.802;2024-03-23T13:39:51;5.72;;;5.32;;
76115;SDS011;64847;45.778;12.802;2024-03-23T13:42:17;7.82;;;7.22;;
76115;SDS011;64847;45.778;12.802;2024-03-23T13:44:42;5.90;;;5.45;;
76115;SDS011;64847;45.778;12.802;2024-03-23T13:47:08;5.65;;;5.22;;
76115;SDS011;64847;45.778;12.802;2024-03-23T13:49:33;6.75;;;6.18;;
76115;SDS011;64847;45.778;12.802;2024-03-23T13:51:59;5.93;;;5.43;;
76115;SDS011;64847;45.778;12.802;2024-03-23T13:54:25;7.00;;;6.38;;
76115;SDS011;64847;45.778;12.802;2024-03-23T13:56:54;6.57;;;6.00;;
76115;SDS011;64847;45.778;12.802;2024-03-23T13:59:20;6.32;;;5.82;;
76115;SDS011;64847;45.778;12.802;2024-03-23T14:01:47;7.25;;;6.50;;
76115;SDS011;64847;45.778;12.802;2024-03-23T14:04:13;7.88;;;7.13;;
76115;SDS011;64847;45.778;12.802;2024-03-23T14:06:39;7.60;;;6.88;;
76115;SDS011;64847;45.778;12.802;2024-03-23T14:09:04;7.05;;;6.45;;
76115;SDS011;64847;45.778;12.802;2024-03-23T14:11:33;7.88;;;7.18;;
76115;SDS011;64847;45.778;12.802;2024-03-23T14:13:59;9.60;;;7.50;;
76115;SDS011;64847;45.778;12.802;2024-03-23T14:16:24;8.30;;;7.60;;
76115;SDS011;64847;45.778;12.802;2024-03-23T14:18:50;9.27;;;7.97;;
76115;SDS011;64847;45.778;12.802;2024-03-23T14:21:16;7.55;;;6.88;;
76115;SDS011;64847;45.778;12.802;2024-03-23T14:23:41;7.50;;;6.38;;
76115;SDS011;64847;45.778;12.802;2024-03-23T14:26:06;7.97;;;7.38;;
76115;SDS011;64847;45.778;12.802;2024-03-23T14:28:33;8.15;;;7.35;;
76115;SDS011;64847;45.778;12.802;2024-03-23T14:30:59;7.68;;;6.97;;
76115;SDS011;64847;45.778;12.802;2024-03-23T14:33:24;8.05;;;7.35;;
76115;SDS011;64847;45.778;12.802;2024-03-23T14:35:53;8.18;;;7.43;;
76115;SDS011;64847;45.778;12.802;2024-03-23T14:38:19;8.35;;;7.55;;
76115;SDS011;64847;45.778;12.802;2024-03-23T14:40:45;7.88;;;7.18;;
76115;SDS011;64847;45.778;12.802;2024-03-23T14:43:11;7.60;;;7.00;;
76115;SDS011;64847;45.778;12.802;2024-03-23T14:45:36;7.85;;;7.25;;
76115;SDS011;64847;45.778;12.802;2024-03-23T14:48:01;7.88;;;7.22;;
76115;SDS011;64847;45.778;12.802;2024-03-23T14:50:27;9.32;;;8.40;;
76115;SDS011;64847;45.778;12.802;2024-03-23T14:52:52;8.77;;;7.97;;
76115;SDS011;64847;45.778;12.802;2024-03-23T14:55:18;8.75;;;7.85;;
76115;SDS011;64847;45.778;12.802;2024-03-23T14:57:44;8.88;;;8.05;;
76115;SDS011;64847;45.778;12.802;2024-03-23T15:00:10;9.80;;;8.90;;
76115;SDS011;64847;45.778;12.802;2024-03-23T15:02:39;9.27;;;8.38;;
76115;SDS011;64847;45.778;12.802;2024-03-23T15:05:05;11.05;;;9.98;;
76115;SDS011;64847;45.778;12.802;2024-03-23T15:07:34;9.52;;;8.68;;
76115;SDS011;64847;45.778;12.802;2024-03-23T15:10:00;11.90;;;10.80;;
76115;SDS011;64847;45.778;12.802;2024-03-23T15:12:25;11.25;;;10.25;;
76115;SDS011;64847;45.778;12.802;2024-03-23T15:14:50;11.25;;;10.23;;
76115;SDS011;64847;45.778;12.802;2024-03-23T15:17:16;11.23;;;10.13;;
76115;SDS011;64847;45.778;12.802;2024-03-23T15:19:41;11.20;;;10.13;;
76115;SDS011;64847;45.778;12.802;2024-03-23T15:22:07;10.93;;;9.93;;
76115;SDS011;64847;45.778;12.802;2024-03-23T15:24:33;11.07;;;10.07;;
76115;SDS011;64847;45.778;12.802;2024-03-23T15:27:00;11.93;;;10.73;;
76115;SDS011;64847;45.778;12.802;2024-03-23T15:29:26;11.50;;;10.50;;